sensor_id;sensor_type;location;lat;lon;timestamp;pressure;altitude;pressure_sealevel;temperature;humidity
84387;BME280;74580;47.078;15.446;2024-02-23T00:02:17;95838.84;;;23.21;31.68
84387;BME280;74580;47.078;15.446;2024-02-23T00:04:43;95837.28;;;23.20;31.82
84387;BME280;74580;47.078;15.446;2024-02-23T00:07:10;95829.09;;;23.20;31.71
84387;BME280;74580;47.078;15.446;2024-02-23T00:09:35;95834.53;;;23.20;31.39
84387;BME280;74580;47.078;15.446;2024-02-23T00:12:01;95836.50;;;23.20;31.71
84387;BME280;74580;47.078;15.446;2024-02-23T00:14:26;95826.00;;;23.18;31.86
84387;BME280;74580;47.078;15.446;2024-02-23T00:16:52;95826.78;;;23.19;31.69
84387;BME280;74580;47.078;15.446;2024-02-23T00:19:17;95832.22;;;23.19;31.67
84387;BME280;74580;47.078;15.446;2024-02-23T00:21:44;95824.03;;;23.19;31.72
84387;BME280;74580;47.078;15.446;2024-02-23T00:24:14;95815.88;;;23.19;31.80
84387;BME280;74580;47.078;15.446;2024-02-23T00:26:41;95821.31;;;23.19;31.49
84387;BME280;74580;47.078;15.446;2024-02-23T00:29:06;95815.09;;;23.18;31.83
84387;BME280;74580;47.078;15.446;2024-02-23T00:31:32;95817.03;;;23.18;31.71
84387;BME280;74580;47.078;15.446;2024-02-23T00:33:57;95813.56;;;23.17;31.85
84387;BME280;74580;47.078;15.446;2024-02-23T00:36:23;95822.47;;;23.18;31.58
84387;BME280;74580;47.078;15.446;2024-02-23T00:38:48;95819.75;;;23.18;31.93
84387;BME280;74580;47.078;15.446;2024-02-23T00:41:14;95823.25;;;23.18;31.61
84387;BME280;74580;47.078;15.446;2024-02-23T00:43:40;95817.81;;;23.18;31.63
84387;BME280;74580;47.078;15.446;2024-02-23T00:46:07;95809.63;;;23.18;31.60
84387;BME280;74580;47.078;15.446;2024-02-23T00:48:32;95829.50;;;23.19;31.77
84387;BME280;74580;47.078;15.446;2024-02-23T00:50:58;95821.72;;;23.17;31.63
84387;BME280;74580;47.078;15.446;2024-02-23T00:53:23;95819.75;;;23.18;31.52
84387;BME280;74580;47.078;15.446;2024-02-23T00:55:49;95820.94;;;23.17;31.33
84387;BME280;74580;47.078;15.446;2024-02-23T00:58:14;95819.34;;;23.19;31.74
84387;BME280;74580;47.078;15.446;2024-02-23T01:00:41;95825.19;;;23.18;31.48
84387;BME280;74580;47.078;15.446;2024-02-23T01:03:07;95831.84;;;23.17;31.56
84387;BME280;74580;47.078;15.446;2024-02-23T01:05:32;95833.78;;;23.16;31.57
84387;BME280;74580;47.078;15.446;2024-02-23T01:07:58;95828.31;;;23.16;31.39
84387;BME280;74580;47.078;15.446;2024-02-23T01:10:23;95835.75;;;23.16;31.75
84387;BME280;74580;47.078;15.446;2024-02-23T01:12:49;95831.84;;;23.17;31.66
84387;BME280;74580;47.078;15.446;2024-02-23T01:15:14;95823.31;;;23.15;31.57
84387;BME280;74580;47.078;15.446;2024-02-23T01:17:39;95831.84;;;23.17;31.68
84387;BME280;74580;47.078;15.446;2024-02-23T01:20:05;95829.13;;;23.17;31.45
84387;BME280;74580;47.078;15.446;2024-02-23T01:22:31;95834.56;;;23.17;31.87
84387;BME280;74580;47.078;15.446;2024-02-23T01:24:56;95834.56;;;23.17;31.76
84387;BME280;74580;47.078;15.446;2024-02-23T01:27:22;95832.63;;;23.17;31.74
84387;BME280;74580;47.078;15.446;2024-02-23T01:29:47;95829.50;;;23.15;31.79
84387;BME280;74580;47.078;15.446;2024-02-23T01:32:12;95837.28;;;23.17;31.74
84387;BME280;74580;47.078;15.446;2024-02-23T01:34:38;95829.13;;;23.17;31.66
84387;BME280;74580;47.078;15.446;2024-02-23T01:37:03;95826.38;;;23.17;31.71
84387;BME280;74580;47.078;15.446;2024-02-23T01:39:29;95835.34;;;23.17;31.75
84387;BME280;74580;47.078;15.446;2024-02-23T01:41:54;95830.31;;;23.16;31.54
84387;BME280;74580;47.078;15.446;2024-02-23T01:44:20;95833.03;;;23.16;31.81
84387;BME280;74580;47.078;15.446;2024-02-23T01:46:46;95834.56;;;23.17;31.62
84387;BME280;74580;47.078;15.446;2024-02-23T01:49:13;95839.66;;;23.15;31.73
84387;BME280;74580;47.078;15.446;2024-02-23T01:51:39;95838.47;;;23.16;31.96
84387;BME280;74580;47.078;15.446;2024-02-23T01:54:06;95833.78;;;23.16;31.61
84387;BME280;74580;47.078;15.446;2024-02-23T01:56:32;95839.66;;;23.15;31.74
84387;BME280;74580;47.078;15.446;2024-02-23T01:58:59;95831.84;;;23.17;31.63
84387;BME280;74580;47.078;15.446;2024-02-23T02:01:25;95824.84;;;23.16;31.64
84387;BME280;74580;47.078;15.446;2024-02-23T02:03:51;95837.28;;;23.17;31.35
84387;BME280;74580;47.078;15.446;2024-02-23T02:06:16;95841.94;;;23.16;31.67
84387;BME280;74580;47.078;15.446;2024-02-23T02:08:42;95833.03;;;23.16;31.64
84387;BME280;74580;47.078;15.446;2024-02-23T02:11:08;95830.31;;;23.16;31.57
84387;BME280;74580;47.078;15.446;2024-02-23T02:13:33;95832.63;;;23.17;31.45
84387;BME280;74580;47.078;15.446;2024-02-23T02:16:00;95834.56;;;23.17;31.62
84387;BME280;74580;47.078;15.446;2024-02-23T02:18:26;95838.47;;;23.16;31.62
84387;BME280;74580;47.078;15.446;2024-02-23T02:20:54;95836.50;;;23.16;31.49
84387;BME280;74580;47.078;15.446;2024-02-23T02:23:20;95829.50;;;23.15;32.13
84387;BME280;74580;47.078;15.446;2024-02-23T02:25:45;95823.31;;;23.15;31.54
84387;BME280;74580;47.078;15.446;2024-02-23T02:28:17;95824.06;;;23.15;31.86
84387;BME280;74580;47.078;15.446;2024-02-23T02:30:42;95817.09;;;23.14;31.67
84387;BME280;74580;47.078;15.446;2024-02-23T02:33:08;95823.31;;;23.15;31.57
84387;BME280;74580;47.078;15.446;2024-02-23T02:35:33;95815.91;;;23.15;31.71
84387;BME280;74580;47.078;15.446;2024-02-23T02:37:59;95817.09;;;23.14;31.86
84387;BME280;74580;47.078;15.446;2024-02-23T02:40:24;95828.75;;;23.15;31.82
84387;BME280;74580;47.078;15.446;2024-02-23T02:42:50;95824.47;;;23.14;31.91
84387;BME280;74580;47.078;15.446;2024-02-23T02:45:15;95817.09;;;23.14;31.88
84387;BME280;74580;47.078;15.446;2024-02-23T02:47:41;95819.03;;;23.14;31.88
84387;BME280;74580;47.078;15.446;2024-02-23T02:50:07;95828.75;;;23.15;31.61
84387;BME280;74580;47.078;15.446;2024-02-23T02:52:32;95822.53;;;23.14;31.86
84387;BME280;74580;47.078;15.446;2024-02-23T02:54:57;95827.19;;;23.14;31.71
84387;BME280;74580;47.078;15.446;2024-02-23T02:57:23;95826.03;;;23.15;31.88
84387;BME280;74580;47.078;15.446;2024-02-23T02:59:48;95828.75;;;23.15;31.75
84387;BME280;74580;47.078;15.446;2024-02-23T03:02:15;95821.75;;;23.14;31.70
84387;BME280;74580;47.078;15.446;2024-02-23T03:04:50;95824.47;;;23.14;31.88
84387;BME280;74580;47.078;15.446;2024-02-23T03:07:18;95830.69;;;23.14;32.07
84387;BME280;74580;47.078;15.446;2024-02-23T03:09:44;95826.44;;;23.13;31.43
84387;BME280;74580;47.078;15.446;2024-02-23T03:12:10;95837.34;;;23.13;31.74
84387;BME280;74580;47.078;15.446;2024-02-23T03:14:36;95831.88;;;23.13;32.11
84387;BME280;74580;47.078;15.446;2024-02-23T03:17:04;95824.88;;;23.12;32.01
84387;BME280;74580;47.078;15.446;2024-02-23T03:19:30;95828.38;;;23.13;31.74
84387;BME280;74580;47.078;15.446;2024-02-23T03:21:55;95827.59;;;23.12;31.75
84387;BME280;74580;47.078;15.446;2024-02-23T03:24:21;95829.16;;;23.13;31.71
84387;BME280;74580;47.078;15.446;2024-02-23T03:26:46;95817.13;;;23.11;31.76
84387;BME280;74580;47.078;15.446;2024-02-23T03:29:11;95828.78;;;23.11;31.59
84387;BME280;74580;47.078;15.446;2024-02-23T03:31:37;95822.16;;;23.12;31.78
84387;BME280;74580;47.078;15.446;2024-02-23T03:34:02;95825.66;;;23.13;31.46
84387;BME280;74580;47.078;15.446;2024-02-23T03:36:28;95822.59;;;23.11;31.70
84387;BME280;74580;47.078;15.446;2024-02-23T03:38:53;95830.31;;;23.12;31.88
84387;BME280;74580;47.078;15.446;2024-02-23T03:41:19;95823.34;;;23.11;31.81
84387;BME280;74580;47.078;15.446;2024-02-23T03:43:44;95834.22;;;23.11;31.71
84387;BME280;74580;47.078;15.446;2024-02-23T03:46:09;95834.22;;;23.11;31.67
84387;BME280;74580;47.078;15.446;2024-02-23T03:48:36;95830.31;;;23.12;31.98
84387;BME280;74580;47.078;15.446;2024-02-23T03:51:06;95841.22;;;23.12;31.36
84387;BME280;74580;47.078;15.446;2024-02-23T03:53:33;95845.91;;;23.12;31.92
84387;BME280;74580;47.078;15.446;2024-02-23T03:55:58;95838.50;;;23.12;31.88
84387;BME280;74580;47.078;15.446;2024-02-23T03:58:24;95842.00;;;23.13;31.91
84387;BME280;74580;47.078;15.446;2024-02-23T04:00:49;95843.19;;;23.12;31.82
84387;BME280;74580;47.078;15.446;2024-02-23T04:03:14;95851.34;;;23.12;31.85
84387;BME280;74580;47.078;15.446;2024-02-23T04:05:40;95852.13;;;23.12;31.76
84387;BME280;74580;47.078;15.446;2024-02-23T04:08:05;95853.28;;;23.11;31.51
84387;BME280;74580;47.078;15.446;2024-02-23T04:10:31;95863.78;;;23.13;31.79
84387;BME280;74580;47.078;15.446;2024-02-23T04:12:57;95859.53;;;23.12;31.74
84387;BME280;74580;47.078;15.446;2024-02-23T04:15:23;95864.19;;;23.11;31.84
84387;BME280;74580;47.078;15.446;2024-02-23T04:17:48;95863.44;;;23.11;31.82
84387;BME280;74580;47.078;15.446;2024-02-23T04:20:14;95863.78;;;23.13;31.87
84387;BME280;74580;47.078;15.446;2024-02-23T04:22:39;95871.19;;;23.12;31.59
84387;BME280;74580;47.078;15.446;2024-02-23T04:25:05;95866.91;;;23.11;32.03
84387;BME280;74580;47.078;15.446;2024-02-23T04:27:30;95868.09;;;23.10;31.75
84387;BME280;74580;47.078;15.446;2024-02-23T04:29:56;95880.13;;;23.13;31.99
84387;BME280;74580;47.078;15.446;2024-02-23T04:32:21;95872.38;;;23.11;31.72
84387;BME280;74580;47.078;15.446;2024-02-23T04:34:47;95866.91;;;23.11;31.79
84387;BME280;74580;47.078;15.446;2024-02-23T04:37:12;95884.81;;;23.12;31.74
84387;BME280;74580;47.078;15.446;2024-02-23T04:39:37;95882.50;;;23.11;32.02
84387;BME280;74580;47.078;15.446;2024-02-23T04:42:12;95881.31;;;23.12;31.84
84387;BME280;74580;47.078;15.446;2024-02-23T04:44:37;95875.50;;;23.10;31.81
84387;BME280;74580;47.078;15.446;2024-02-23T04:47:02;95874.75;;;23.09;32.04
84387;BME280;74580;47.078;15.446;2024-02-23T04:49:28;95877.06;;;23.11;31.90
84387;BME280;74580;47.078;15.446;2024-02-23T04:51:53;95886.00;;;23.11;31.78
84387;BME280;74580;47.078;15.446;2024-02-23T04:54:20;95893.41;;;23.11;32.21
84387;BME280;74580;47.078;15.446;2024-02-23T04:56:46;95901.56;;;23.11;32.00
84387;BME280;74580;47.078;15.446;2024-02-23T04:59:12;95899.59;;;23.11;31.70
84387;BME280;74580;47.078;15.446;2024-02-23T05:01:37;95898.84;;;23.11;32.12
84387;BME280;74580;47.078;15.446;2024-02-23T05:04:03;95896.53;;;23.09;31.77
84387;BME280;74580;47.078;15.446;2024-02-23T05:06:29;95915.59;;;23.09;32.02
84387;BME280;74580;47.078;15.446;2024-02-23T05:08:55;95904.31;;;23.11;31.78
84387;BME280;74580;47.078;15.446;2024-02-23T05:11:20;95918.31;;;23.09;31.83
84387;BME280;74580;47.078;15.446;2024-02-23T05:13:47;95911.31;;;23.08;31.65
84387;BME280;74580;47.078;15.446;2024-02-23T05:16:14;95898.47;;;23.09;31.99
84387;BME280;74580;47.078;15.446;2024-02-23T05:18:40;95913.28;;;23.08;31.59
84387;BME280;74580;47.078;15.446;2024-02-23T05:21:06;95909.38;;;23.09;32.04
84387;BME280;74580;47.078;15.446;2024-02-23T05:23:32;95907.44;;;23.09;31.61
84387;BME280;74580;47.078;15.446;2024-02-23T05:25:57;95914.03;;;23.08;31.90
84387;BME280;74580;47.078;15.446;2024-02-23T05:28:22;95912.09;;;23.09;31.90
84387;BME280;74580;47.078;15.446;2024-02-23T05:30:48;95914.81;;;23.09;32.27
84387;BME280;74580;47.078;15.446;2024-02-23T05:33:13;95915.22;;;23.07;31.88
84387;BME280;74580;47.078;15.446;2024-02-23T05:35:38;95917.53;;;23.09;31.73
84387;BME280;74580;47.078;15.446;2024-02-23T05:38:04;95904.31;;;23.07;31.84
84387;BME280;74580;47.078;15.446;2024-02-23T05:40:31;95910.56;;;23.08;31.73
84387;BME280;74580;47.078;15.446;2024-02-23T05:42:57;95910.56;;;23.08;31.64
84387;BME280;74580;47.078;15.446;2024-02-23T05:45:23;95904.69;;;23.09;31.87
84387;BME280;74580;47.078;15.446;2024-02-23T05:47:49;95897.69;;;23.08;32.05
84387;BME280;74580;47.078;15.446;2024-02-23T05:50:14;95909.38;;;23.09;31.57
84387;BME280;74580;47.078;15.446;2024-02-23T05:52:40;95901.56;;;23.11;32.12
84387;BME280;74580;47.078;15.446;2024-02-23T05:55:05;95903.13;;;23.12;32.10
84387;BME280;74580;47.078;15.446;2024-02-23T05:57:31;95907.38;;;23.13;32.22
84387;BME280;74580;47.078;15.446;2024-02-23T05:59:56;95908.91;;;23.14;32.26
84387;BME280;74580;47.078;15.446;2024-02-23T06:02:22;95898.81;;;23.14;32.25
84387;BME280;74580;47.078;15.446;2024-02-23T06:04:48;95887.53;;;23.12;32.55
84387;BME280;74580;47.078;15.446;2024-02-23T06:07:13;95891.41;;;23.15;32.31
84387;BME280;74580;47.078;15.446;2024-02-23T06:09:42;95894.91;;;23.15;32.58
84387;BME280;74580;47.078;15.446;2024-02-23T06:12:08;95900.38;;;22.68;32.32
84387;BME280;74580;47.078;15.446;2024-02-23T06:14:34;95920.81;;;22.35;32.83
84387;BME280;74580;47.078;15.446;2024-02-23T06:16:59;95926.69;;;22.23;33.02
84387;BME280;74580;47.078;15.446;2024-02-23T06:19:25;95917.63;;;22.51;32.71
84387;BME280;74580;47.078;15.446;2024-02-23T06:21:50;95913.22;;;22.71;32.27
84387;BME280;74580;47.078;15.446;2024-02-23T06:24:16;95927.13;;;22.80;32.28
84387;BME280;74580;47.078;15.446;2024-02-23T06:26:42;95926.34;;;22.83;32.32
84387;BME280;74580;47.078;15.446;2024-02-23T06:29:07;95939.13;;;22.86;32.35
84387;BME280;74580;47.078;15.446;2024-02-23T06:31:38;95929.38;;;22.92;32.45
84387;BME280;74580;47.078;15.446;2024-02-23T06:34:04;95931.69;;;22.93;31.83
84387;BME280;74580;47.078;15.446;2024-02-23T06:36:30;95929.31;;;22.95;32.33
84387;BME280;74580;47.078;15.446;2024-02-23T06:38:55;95928.94;;;22.97;32.22
84387;BME280;74580;47.078;15.446;2024-02-23T06:41:21;95929.31;;;22.99;32.08
84387;BME280;74580;47.078;15.446;2024-02-23T06:43:46;95928.91;;;23.00;32.26
84387;BME280;74580;47.078;15.446;2024-02-23T06:46:12;95928.91;;;23.00;32.00
84387;BME280;74580;47.078;15.446;2024-02-23T06:48:38;95933.59;;;23.00;32.09
84387;BME280;74580;47.078;15.446;2024-02-23T06:51:04;95939.81;;;23.00;31.98
84387;BME280;74580;47.078;15.446;2024-02-23T06:53:30;95935.13;;;23.01;32.34
84387;BME280;74580;47.078;15.446;2024-02-23T06:55:55;95930.06;;;22.99;31.98
84387;BME280;74580;47.078;15.446;2024-02-23T06:58:21;95937.09;;;23.00;32.14
84387;BME280;74580;47.078;15.446;2024-02-23T07:00:46;95927.72;;;23.01;32.05
84387;BME280;74580;47.078;15.446;2024-02-23T07:03:12;95935.13;;;23.01;32.23
84387;BME280;74580;47.078;15.446;2024-02-23T07:05:37;95938.63;;;23.01;32.12
84387;BME280;74580;47.078;15.446;2024-02-23T07:08:03;95950.28;;;23.02;31.64
84387;BME280;74580;47.078;15.446;2024-02-23T07:10:28;95952.66;;;23.00;32.11
84387;BME280;74580;47.078;15.446;2024-02-23T07:12:54;95947.59;;;22.98;31.88
84387;BME280;74580;47.078;15.446;2024-02-23T07:15:21;95947.19;;;23.00;31.86
84387;BME280;74580;47.078;15.446;2024-02-23T07:17:46;95946.00;;;23.01;31.87
84387;BME280;74580;47.078;15.446;2024-02-23T07:20:12;95947.19;;;23.00;32.08
84387;BME280;74580;47.078;15.446;2024-02-23T07:22:37;95953.44;;;23.00;31.72
84387;BME280;74580;47.078;15.446;2024-02-23T07:25:04;95953.44;;;23.00;31.40
84387;BME280;74580;47.078;15.446;2024-02-23T07:27:30;95952.66;;;23.00;31.66
84387;BME280;74580;47.078;15.446;2024-02-23T07:29:56;95956.56;;;22.99;32.00
84387;BME280;74580;47.078;15.446;2024-02-23T07:32:22;95959.28;;;22.99;31.63
84387;BME280;74580;47.078;15.446;2024-02-23T07:34:47;95956.56;;;22.99;31.54
84387;BME280;74580;47.078;15.446;2024-02-23T07:37:13;95965.88;;;22.98;31.52
84387;BME280;74580;47.078;15.446;2024-02-23T07:39:38;95968.59;;;22.98;31.87
84387;BME280;74580;47.078;15.446;2024-02-23T07:42:04;95965.88;;;22.98;31.42
84387;BME280;74580;47.078;15.446;2024-02-23T07:44:31;95972.50;;;22.97;31.58
84387;BME280;74580;47.078;15.446;2024-02-23T07:46:56;95979.91;;;22.96;31.39
84387;BME280;74580;47.078;15.446;2024-02-23T07:49:23;95976.00;;;22.97;31.45
84387;BME280;74580;47.078;15.446;2024-02-23T07:51:49;95972.91;;;22.99;31.69
84387;BME280;74580;47.078;15.446;2024-02-23T07:54:14;95965.88;;;22.98;31.49
84387;BME280;74580;47.078;15.446;2024-02-23T07:56:40;95963.16;;;22.98;31.47
84387;BME280;74580;47.078;15.446;2024-02-23T07:59:05;95956.03;;;22.63;31.85
84387;BME280;74580;47.078;15.446;2024-02-23T08:01:30;95976.69;;;22.57;31.91
84387;BME280;74580;47.078;15.446;2024-02-23T08:03:57;95992.47;;;22.80;31.91
84387;BME280;74580;47.078;15.446;2024-02-23T08:06:22;95981.16;;;22.85;31.98
84387;BME280;74580;47.078;15.446;2024-02-23T08:08:47;95983.09;;;22.88;31.85
84387;BME280;74580;47.078;15.446;2024-02-23T08:11:13;95983.44;;;22.90;32.07
84387;BME280;74580;47.078;15.446;2024-02-23T08:13:39;95994.72;;;22.92;32.16
84387;BME280;74580;47.078;15.446;2024-02-23T08:16:04;95997.81;;;22.94;32.03
84387;BME280;74580;47.078;15.446;2024-02-23T08:18:31;95992.75;;;22.96;32.03
84387;BME280;74580;47.078;15.446;2024-02-23T08:20:56;95991.56;;;22.97;32.15
84387;BME280;74580;47.078;15.446;2024-02-23T08:23:23;95991.97;;;22.99;32.03
84387;BME280;74580;47.078;15.446;2024-02-23T08:25:48;95993.50;;;23.00;32.06
84387;BME280;74580;47.078;15.446;2024-02-23T08:28:13;95992.31;;;23.01;32.12
84387;BME280;74580;47.078;15.446;2024-02-23T08:30:39;95999.31;;;23.02;32.02
84387;BME280;74580;47.078;15.446;2024-02-23T08:33:04;95990.75;;;23.03;32.43
84387;BME280;74580;47.078;15.446;2024-02-23T08:35:30;95986.06;;;23.04;32.25
84387;BME280;74580;47.078;15.446;2024-02-23T08:37:56;95989.94;;;23.06;32.29
84387;BME280;74580;47.078;15.446;2024-02-23T08:40:21;95989.94;;;23.06;32.46
84387;BME280;74580;47.078;15.446;2024-02-23T08:42:47;95996.94;;;23.07;32.24
84387;BME280;74580;47.078;15.446;2024-02-23T08:45:12;95984.84;;;23.08;32.45
84387;BME280;74580;47.078;15.446;2024-02-23T08:47:39;95991.09;;;23.09;32.40
84387;BME280;74580;47.078;15.446;2024-02-23T08:50:05;95991.47;;;23.11;32.21
84387;BME280;74580;47.078;15.446;2024-02-23T08:52:31;95977.44;;;23.12;32.48
84387;BME280;74580;47.078;15.446;2024-02-23T08:54:56;95973.94;;;23.12;32.47
84387;BME280;74580;47.078;15.446;2024-02-23T08:57:22;95982.13;;;23.12;32.50
84387;BME280;74580;47.078;15.446;2024-02-23T08:59:49;95979.75;;;23.14;32.64
84387;BME280;74580;47.078;15.446;2024-02-23T09:02:15;95986.00;;;23.14;32.47
84387;BME280;74580;47.078;15.446;2024-02-23T09:04:40;95987.53;;;23.15;32.56
84387;BME280;74580;47.078;15.446;2024-02-23T09:07:06;95998.44;;;23.15;32.65
84387;BME280;74580;47.078;15.446;2024-02-23T09:09:31;95995.31;;;23.17;32.54
84387;BME280;74580;47.078;15.446;2024-02-23T09:11:57;95978.97;;;23.17;32.71
84387;BME280;74580;47.078;15.446;2024-02-23T09:14:22;95982.06;;;23.19;32.87
84387;BME280;74580;47.078;15.446;2024-02-23T09:16:47;95998.81;;;23.21;32.61
84387;BME280;74580;47.078;15.446;2024-02-23T09:19:19;96001.53;;;23.21;32.64
84387;BME280;74580;47.078;15.446;2024-02-23T09:21:45;95982.44;;;23.21;32.54
84387;BME280;74580;47.078;15.446;2024-02-23T09:24:10;95990.22;;;23.22;32.63
84387;BME280;74580;47.078;15.446;2024-02-23T09:26:36;95975.81;;;23.22;32.68
84387;BME280;74580;47.078;15.446;2024-02-23T09:29:01;95981.66;;;23.24;32.86
84387;BME280;74580;47.078;15.446;2024-02-23T09:31:27;95984.38;;;23.24;32.68
84387;BME280;74580;47.078;15.446;2024-02-23T09:33:54;95983.19;;;23.25;32.87
84387;BME280;74580;47.078;15.446;2024-02-23T09:36:20;95998.38;;;23.26;32.51
84387;BME280;74580;47.078;15.446;2024-02-23T09:38:45;96005.38;;;23.27;32.69
84387;BME280;74580;47.078;15.446;2024-02-23T09:41:17;95989.78;;;23.27;32.93
84387;BME280;74580;47.078;15.446;2024-02-23T09:43:44;95991.34;;;23.28;32.74
84387;BME280;74580;47.078;15.446;2024-02-23T09:46:11;95983.16;;;23.28;32.66
84387;BME280;74580;47.078;15.446;2024-02-23T09:48:38;95985.13;;;23.28;33.21
84387;BME280;74580;47.078;15.446;2024-02-23T09:51:04;95992.13;;;23.29;32.98
84387;BME280;74580;47.078;15.446;2024-02-23T09:53:31;95998.34;;;23.29;32.84
84387;BME280;74580;47.078;15.446;2024-02-23T09:55:57;95990.94;;;23.30;32.70
84387;BME280;74580;47.078;15.446;2024-02-23T09:58:26;95994.44;;;23.30;32.75
84387;BME280;74580;47.078;15.446;2024-02-23T10:00:56;95985.47;;;23.33;32.70
84387;BME280;74580;47.078;15.446;2024-02-23T10:03:27;95995.19;;;23.34;32.55
84387;BME280;74580;47.078;15.446;2024-02-23T10:05:57;95985.81;;;23.35;32.58
84387;BME280;74580;47.078;15.446;2024-02-23T10:08:22;95986.59;;;23.36;32.61
84387;BME280;74580;47.078;15.446;2024-02-23T10:10:48;95980.38;;;23.35;32.55
84387;BME280;74580;47.078;15.446;2024-02-23T10:13:20;95989.72;;;23.34;32.57
84387;BME280;74580;47.078;15.446;2024-02-23T10:15:52;95983.09;;;23.35;32.38
84387;BME280;74580;47.078;15.446;2024-02-23T10:18:19;95980.78;;;23.34;32.55
84387;BME280;74580;47.078;15.446;2024-02-23T10:20:45;95978.44;;;23.36;32.55
84387;BME280;74580;47.078;15.446;2024-02-23T10:23:10;95982.34;;;23.35;32.54
84387;BME280;74580;47.078;15.446;2024-02-23T10:25:36;95989.72;;;23.34;32.88
84387;BME280;74580;47.078;15.446;2024-02-23T10:28:05;95985.88;;;23.32;32.71
84387;BME280;74580;47.078;15.446;2024-02-23T10:30:31;95988.19;;;23.33;32.51
84387;BME280;74580;47.078;15.446;2024-02-23T10:32:57;95988.19;;;23.33;32.91
84387;BME280;74580;47.078;15.446;2024-02-23T10:35:24;95979.63;;;23.35;32.69
84387;BME280;74580;47.078;15.446;2024-02-23T10:37:50;95980.78;;;23.34;33.08
84387;BME280;74580;47.078;15.446;2024-02-23T10:40:17;95966.00;;;23.35;32.79
84387;BME280;74580;47.078;15.446;2024-02-23T10:42:44;95956.63;;;23.36;32.94
84387;BME280;74580;47.078;15.446;2024-02-23T10:45:14;95962.47;;;23.34;33.05
84387;BME280;74580;47.078;15.446;2024-02-23T10:47:41;95951.19;;;23.36;33.06
84387;BME280;74580;47.078;15.446;2024-02-23T10:50:07;95962.84;;;23.36;33.05
84387;BME280;74580;47.078;15.446;2024-02-23T10:52:33;95956.22;;;23.38;32.86
84387;BME280;74580;47.078;15.446;2024-02-23T10:55:00;95949.22;;;23.36;32.94
84387;BME280;74580;47.078;15.446;2024-02-23T10:57:26;95943.75;;;23.36;33.00
84387;BME280;74580;47.078;15.446;2024-02-23T10:59:52;95942.59;;;23.38;33.15
84387;BME280;74580;47.078;15.446;2024-02-23T11:02:19;95942.59;;;23.38;33.00
84387;BME280;74580;47.078;15.446;2024-02-23T11:04:47;95946.88;;;23.38;33.24
84387;BME280;74580;47.078;15.446;2024-02-23T11:07:18;95942.97;;;23.39;33.16
84387;BME280;74580;47.078;15.446;2024-02-23T11:09:54;95944.94;;;23.39;33.17
84387;BME280;74580;47.078;15.446;2024-02-23T11:12:23;95941.41;;;23.38;33.33
84387;BME280;74580;47.078;15.446;2024-02-23T11:14:49;95942.19;;;23.39;33.46
84387;BME280;74580;47.078;15.446;2024-02-23T11:17:19;95926.59;;;23.39;33.27
84387;BME280;74580;47.078;15.446;2024-02-23T11:19:50;95935.56;;;23.40;33.43
84387;BME280;74580;47.078;15.446;2024-02-23T11:22:26;95934.03;;;23.39;32.97
84387;BME280;74580;47.078;15.446;2024-02-23T11:24:53;95924.66;;;23.40;33.30
84387;BME280;74580;47.078;15.446;2024-02-23T11:27:19;95922.69;;;23.40;33.21
84387;BME280;74580;47.078;15.446;2024-02-23T11:29:45;95922.69;;;23.40;33.32
84387;BME280;74580;47.078;15.446;2024-02-23T11:32:16;95922.69;;;23.40;33.37
84387;BME280;74580;47.078;15.446;2024-02-23T11:34:41;95919.97;;;23.40;33.39
84387;BME280;74580;47.078;15.446;2024-02-23T11:37:10;95923.47;;;23.41;33.60
84387;BME280;74580;47.078;15.446;2024-02-23T11:42:06;95914.91;;;23.42;33.44
84387;BME280;74580;47.078;15.446;2024-02-23T11:44:32;95918.03;;;23.41;33.65
84387;BME280;74580;47.078;15.446;2024-02-23T11:46:58;95910.22;;;23.43;33.45
84387;BME280;74580;47.078;15.446;2024-02-23T11:49:30;95918.41;;;23.43;33.65
84387;BME280;74580;47.078;15.446;2024-02-23T11:51:56;95917.22;;;23.44;33.36
84387;BME280;74580;47.078;15.446;2024-02-23T11:54:22;95915.25;;;23.44;33.42
84387;BME280;74580;47.078;15.446;2024-02-23T11:56:48;95912.91;;;23.47;33.41
84387;BME280;74580;47.078;15.446;2024-02-23T11:59:15;95910.59;;;23.45;33.33
84387;BME280;74580;47.078;15.446;2024-02-23T12:01:41;95914.09;;;23.46;33.52
84387;BME280;74580;47.078;15.446;2024-02-23T12:04:07;95912.13;;;23.46;33.54
84387;BME280;74580;47.078;15.446;2024-02-23T12:06:33;95908.25;;;23.47;33.66
84387;BME280;74580;47.078;15.446;2024-02-23T12:08:58;95900.88;;;23.44;33.14
84387;BME280;74580;47.078;15.446;2024-02-23T12:11:24;95898.78;;;23.21;32.88
84387;BME280;74580;47.078;15.446;2024-02-23T12:13:50;95896.34;;;23.30;33.10
84387;BME280;74580;47.078;15.446;2024-02-23T12:16:16;95892.03;;;23.33;33.03
84387;BME280;74580;47.078;15.446;2024-02-23T12:18:41;95891.63;;;23.34;33.16
84387;BME280;74580;47.078;15.446;2024-02-23T12:21:08;95895.50;;;23.37;32.97
84387;BME280;74580;47.078;15.446;2024-02-23T12:23:49;95890.03;;;23.37;33.08
84387;BME280;74580;47.078;15.446;2024-02-23T12:26:18;95886.50;;;23.40;33.06
84387;BME280;74580;47.078;15.446;2024-02-23T12:28:44;95883.78;;;23.40;33.27
84387;BME280;74580;47.078;15.446;2024-02-23T12:31:11;95893.16;;;23.39;33.18
84387;BME280;74580;47.078;15.446;2024-02-23T12:33:38;95881.06;;;23.40;33.03
84387;BME280;74580;47.078;15.446;2024-02-23T12:36:07;95881.06;;;23.36;33.09
84387;BME280;74580;47.078;15.446;2024-02-23T12:38:33;95875.28;;;23.34;32.76
84387;BME280;74580;47.078;15.446;2024-02-23T12:41:00;95871.03;;;23.30;32.78
84387;BME280;74580;47.078;15.446;2024-02-23T12:43:25;95875.00;;;23.25;32.82
84387;BME280;74580;47.078;15.446;2024-02-23T12:45:54;95869.94;;;23.24;32.45
84387;BME280;74580;47.078;15.446;2024-02-23T12:48:20;95862.16;;;23.22;32.61